Erie International Tom Ridge Field Erie US
ICAO: KERI
IATA: ERI
Category: Large
Scheduled Services: Yes

Elevation: 732 ft
TransAlt. 18000 ft.

Airport Communications:
APP/DEP:121
ATIS:120.35
CLNC DEL:126.8
CTAF:118.1
GND:121.9
ALTOONA RDO:109.4
TWR:118.1
UNICOM:122.95

KERI Zoom In..

Runways:

(A) RW 02 length 3508 ft width 150 ft
---- / hdg 20

(B) RW 06 length 8420 ft width 150 ft
ILS 110.30 / hdg 64

(C) RW 20 length 3508 ft width 150 ft
---- / hdg 200

(D) RW 24 length 8420 ft width 150 ft
ILS 110.30 / hdg 244

Location; KERI
Day. 11 / Time. 19.51 Zulu
* Altimeter: 29.74
* Temperature: 24° c. 75.2°f.
* Wind from: 280° Speed 13 kn with Gusts up to 23 kn.
Dewpoint: 19° c.
Visibility: 10 Statute Miles.
Clouds: Few 1900 ft.
Clouds: Broken 3400 ft.
Clouds: Overcast 4400 ft.

KERI 111951Z AUTO 28013G23KT 10SM FEW019 BKN034 OVC044 24/19 A2974 RMK AO2 SLP064 T02440189 $

Going to: --> -->


Wind From 280°
Speed 13 kn.

 
 
jpsmedia worldairports.se 2020   terms of use